Sivas Airport Sivas TR
ICAO: LTAR
IATA: VAS
Category: Medium
Scheduled Services: Yes

Elevation: 5236 ft
TransAlt. 12000 ft.

Airport Communications:
GND:121.9
TWR:118.1

LTAR Zoom In..

If you have problems with the map follow the link
https://www.worldairports.se/pages/airport.php?
ICAO=LTAR

Runways:

(A) RW 01 length 12503 ft width 148 ft
ILS 109.10 / hdg 13

(B) RW 19 length 12503 ft width 148 ft
---- / hdg 193

Location; LTAR
Day. 18 / Time. 04.50 Zulu
* QNH: 1016
* Temperature: 15° c. 59°f.
* Wind from: 330° Speed 07 kn.
Dewpoint: 14° c.
Visibility: 10 km or more.
Clouds: Scattered 1000 ft.
Clouds: Broken 3500 ft.

LTAR 180450Z 33007KT 9999 SCT010 BKN035 15/14 Q1016


Wind From 330°
Speed 07 kn.

 
 
jpsmedia.com for Web Design worldairports.se 2019   terms of use